Time;durP1;ratioP1;P1;durP2;ratioP2;P2;SDS_P1;SDS_P2;PMS_P1;PMS_P2;Temp;Humidity;BMP_temperature;BMP_pressure;BME280_temperature;BME280_humidity;BME280_pressure;Samples;Min_cycle;Max_cycle;Signal;HPM_P1;HPM_P2
2023/01/21 00:01:10;;;;;;;49.10;24.52;;;-3.00;99.90;;;;;;5010534;28;20041;-87
2023/01/21 00:03:36;;;;;;;52.55;26.73;;;-3.20;99.90;;;;;;5001153;28;20033;-86
2023/01/21 00:06:04;;;;;;;50.60;25.45;;;-3.00;99.90;;;;;;5014808;28;20043;-86
2023/01/21 00:08:29;;;;;;;48.53;23.90;;;-3.10;99.90;;;;;;5003932;28;20024;-85
2023/01/21 00:10:55;;;;;;;44.80;23.13;;;-3.10;99.90;;;;;;5013036;28;20039;-86
2023/01/21 00:13:21;;;;;;;48.55;24.52;;;-3.30;99.90;;;;;;4996327;28;20037;-87
2023/01/21 00:15:46;;;;;;;49.35;25.05;;;-3.30;99.90;;;;;;5008723;28;20032;-87
2023/01/21 00:18:12;;;;;;;49.53;24.02;;;-3.10;99.90;;;;;;5027519;28;20029;-87
2023/01/21 00:20:38;;;;;;;41.65;21.67;;;-3.10;99.90;;;;;;5020283;28;20028;-87
2023/01/21 00:23:03;;;;;;;49.58;24.42;;;-3.00;99.90;;;;;;5012040;28;20524;-87
2023/01/21 00:25:29;;;;;;;58.60;24.95;;;-3.10;99.90;;;;;;5013472;28;20575;-86
2023/01/21 00:27:54;;;;;;;48.35;25.02;;;-3.20;99.90;;;;;;4996759;28;20550;-86
2023/01/21 00:30:20;;;;;;;51.30;23.92;;;-3.10;99.90;;;;;;5010696;28;20511;-86
2023/01/21 00:32:46;;;;;;;53.10;23.60;;;-3.20;99.90;;;;;;5028922;28;20044;-86
2023/01/21 00:35:12;;;;;;;49.83;22.25;;;-3.10;99.90;;;;;;4997362;28;20049;-87
2023/01/21 00:37:37;;;;;;;47.72;23.88;;;-3.20;99.90;;;;;;4992956;28;20049;-88
2023/01/21 00:40:04;;;;;;;48.92;25.83;;;-3.20;99.90;;;;;;5010808;28;20047;-87
2023/01/21 00:42:30;;;;;;;51.10;26.58;;;-3.10;99.90;;;;;;5011185;28;20520;-84
2023/01/21 00:44:56;;;;;;;55.10;24.48;;;-3.20;99.90;;;;;;5012899;28;20043;-85
2023/01/21 00:47:22;;;;;;;56.95;27.95;;;-3.20;99.90;;;;;;5010159;28;20029;-78
2023/01/21 00:49:47;;;;;;;49.70;24.77;;;-3.30;99.90;;;;;;5011112;28;20358;-79
2023/01/21 00:52:13;;;;;;;54.40;24.92;;;-3.30;99.90;;;;;;4994287;28;20029;-78
2023/01/21 00:54:39;;;;;;;46.50;23.80;;;-3.30;99.90;;;;;;5027803;28;20039;-78
2023/01/21 00:57:05;;;;;;;48.90;23.17;;;-3.30;99.90;;;;;;4993997;28;20044;-78
2023/01/21 00:59:31;;;;;;;50.80;25.33;;;-3.40;99.90;;;;;;4993091;28;20055;-79
2023/01/21 01:01:56;;;;;;;48.92;24.42;;;-3.40;99.90;;;;;;5010777;28;20370;-78
2023/01/21 01:04:22;;;;;;;54.67;25.88;;;-3.20;99.90;;;;;;5011637;28;20544;-79
2023/01/21 01:06:47;;;;;;;57.55;26.67;;;-3.30;99.90;;;;;;4995618;28;20044;-78
2023/01/21 01:09:13;;;;;;;63.60;28.50;;;-3.20;99.90;;;;;;5008633;28;20132;-78
2023/01/21 01:11:39;;;;;;;59.92;26.15;;;-3.20;99.90;;;;;;5010850;28;20103;-78
2023/01/21 01:14:04;;;;;;;58.53;27.67;;;-3.30;99.90;;;;;;5012413;28;20033;-78
2023/01/21 01:16:30;;;;;;;51.80;25.27;;;-3.40;99.90;;;;;;4992082;28;20186;-78
2023/01/21 01:18:56;;;;;;;49.17;23.77;;;-3.40;99.90;;;;;;5010660;28;20079;-78
2023/01/21 01:21:21;;;;;;;59.72;27.70;;;-3.50;99.90;;;;;;5008668;28;20041;-78
2023/01/21 01:23:47;;;;;;;51.30;23.10;;;-3.30;99.90;;;;;;5007281;28;20036;-79
2023/01/21 01:26:14;;;;;;;53.72;25.00;;;-3.30;99.90;;;;;;5007591;28;20040;-79
2023/01/21 01:28:40;;;;;;;51.38;24.73;;;-3.30;99.90;;;;;;4995533;28;20140;-78
2023/01/21 01:31:07;;;;;;;53.17;26.00;;;-3.30;99.90;;;;;;4994760;28;20149;-78
2023/01/21 01:33:33;;;;;;;52.08;25.63;;;-3.40;99.90;;;;;;4994408;28;20037;-78
2023/01/21 01:36:03;;;;;;;53.55;24.55;;;-3.40;99.90;;;;;;5025190;28;20091;-79
2023/01/21 01:38:30;;;;;;;57.90;26.77;;;-3.50;99.90;;;;;;4995069;28;20078;-80
2023/01/21 01:40:56;;;;;;;53.15;26.33;;;-3.50;99.90;;;;;;4994551;28;20424;-79
2023/01/21 01:43:26;;;;;;;55.15;26.23;;;-3.40;99.90;;;;;;5011387;28;20032;-78
2023/01/21 01:45:53;;;;;;;58.85;27.05;;;-3.40;99.90;;;;;;5038882;28;20112;-78
2023/01/21 01:48:20;;;;;;;53.55;26.30;;;-3.50;99.90;;;;;;5012643;28;20064;-79
2023/01/21 01:50:45;;;;;;;54.60;24.88;;;-3.50;99.90;;;;;;5028757;28;20029;-80
2023/01/21 01:53:11;;;;;;;52.65;24.83;;;-3.50;99.90;;;;;;5009960;28;20115;-79
2023/01/21 01:55:36;;;;;;;56.83;25.95;;;-3.50;99.90;;;;;;5027448;28;20392;-81
2023/01/21 01:58:02;;;;;;;60.78;24.95;;;-3.70;99.90;;;;;;5023803;28;20029;-79
2023/01/21 02:00:28;;;;;;;62.50;27.05;;;-3.60;99.90;;;;;;5010007;28;20051;-78
2023/01/21 02:05:37;;;;;;;64.57;28.65;;;-3.70;99.90;;;;;;5024673;28;20032;-78
2023/01/21 02:08:03;;;;;;;53.00;27.02;;;-3.80;99.90;;;;;;5009715;28;20033;-79
2023/01/21 02:10:30;;;;;;;56.63;27.00;;;-3.80;99.90;;;;;;5024346;28;20037;-78
2023/01/21 02:12:56;;;;;;;57.70;24.50;;;-3.80;99.90;;;;;;4996391;28;20040;-78
2023/01/21 02:15:23;;;;;;;59.22;28.20;;;-3.80;99.90;;;;;;5012923;28;20037;-78
2023/01/21 02:18:01;;;;;;;50.50;26.85;;;-3.80;99.90;;;;;;4994797;28;20032;-78
2023/01/21 02:20:32;;;;;;;56.33;24.98;;;-3.80;99.90;;;;;;5022902;28;20056;-78
2023/01/21 02:23:02;;;;;;;56.20;25.67;;;-3.70;99.90;;;;;;5025013;28;20036;-78
2023/01/21 02:25:57;;;;;;;57.13;25.40;;;-3.80;99.90;;;;;;5010273;28;20044;-78
2023/01/21 02:28:50;;;;;;;62.60;26.23;;;-3.70;99.90;;;;;;5027324;28;20028;-78
2023/01/21 02:31:34;;;;;;;58.90;26.70;;;-3.70;99.90;;;;;;5041599;28;20068;-78
2023/01/21 02:34:34;;;;;;;55.75;26.02;;;-3.60;99.90;;;;;;5028480;28;20025;-79
2023/01/21 02:37:04;;;;;;;52.03;25.95;;;-3.60;99.90;;;;;;5009741;28;20034;-80
2023/01/21 02:40:04;;;;;;;65.38;26.27;;;-3.70;99.90;;;;;;5026930;28;20476;-79
2023/01/21 02:42:39;;;;;;;59.08;26.02;;;-3.90;99.90;;;;;;5012104;28;20036;-79
2023/01/21 02:45:14;;;;;;;52.95;22.88;;;-3.90;99.90;;;;;;5017516;28;20029;-78
2023/01/21 02:47:45;;;;;;;59.85;27.42;;;-3.90;99.90;;;;;;5023915;28;20029;-78
2023/01/21 02:50:19;;;;;;;55.22;24.67;;;-3.80;99.90;;;;;;5009384;28;20047;-79
2023/01/21 02:52:52;;;;;;;59.45;26.27;;;-3.80;99.90;;;;;;4993566;28;20028;-79
2023/01/21 02:55:18;;;;;;;57.30;25.25;;;-3.90;99.90;;;;;;5012376;28;20060;-78
2023/01/21 02:57:48;;;;;;;56.03;25.27;;;-3.90;99.90;;;;;;5010126;28;20029;-78
2023/01/21 03:00:18;;;;;;;54.80;26.45;;;-4.00;99.90;;;;;;5006187;28;20116;-78
2023/01/21 03:02:55;;;;;;;62.88;26.30;;;-4.00;99.90;;;;;;5010320;28;20025;-78
2023/01/21 03:05:31;;;;;;;57.60;27.60;;;-4.00;99.90;;;;;;5041288;28;20059;-77
2023/01/21 03:08:05;;;;;;;62.08;28.70;;;-4.00;99.90;;;;;;4988432;28;20684;-78
2023/01/21 03:10:39;;;;;;;59.85;26.38;;;-4.00;99.90;;;;;;5025425;28;20040;-78
2023/01/21 03:16:55;;;;;;;59.67;25.92;;;-4.00;99.90;;;;;;5013423;28;20044;-79
2023/01/21 03:18:49;;;;;;;61.78;28.45;;;-4.00;99.90;;;;;;5016826;28;20116;-78
2023/01/21 03:21:17;;;;;;;59.75;27.95;;;-4.10;99.90;;;;;;5010198;28;20135;-78
2023/01/21 03:23:44;;;;;;;60.30;26.95;;;-4.00;99.90;;;;;;5008438;28;20079;-78
2023/01/21 03:26:11;;;;;;;56.47;27.00;;;-3.90;99.90;;;;;;5005287;28;20580;-78
2023/01/21 03:28:40;;;;;;;61.53;28.40;;;-3.80;99.90;;;;;;5022595;28;20510;-79
2023/01/21 03:31:11;;;;;;;63.60;27.73;;;-3.90;99.90;;;;;;5028533;28;20041;-78
2023/01/21 03:33:38;;;;;;;62.22;28.95;;;-3.90;99.90;;;;;;4995636;28;20079;-78
2023/01/21 03:36:07;;;;;;;58.78;26.55;;;-4.00;99.90;;;;;;5011323;28;20025;-77
2023/01/21 03:38:35;;;;;;;57.28;26.45;;;-3.90;99.90;;;;;;4994437;28;20440;-78
2023/01/21 03:41:12;;;;;;;51.38;25.00;;;-3.80;99.90;;;;;;4993364;28;20033;-78
2023/01/21 03:43:38;;;;;;;61.67;26.00;;;-3.80;99.90;;;;;;5007702;28;20035;-78
2023/01/21 03:46:20;;;;;;;51.83;25.77;;;-3.80;99.90;;;;;;5009691;28;20116;-78
2023/01/21 03:49:19;;;;;;;54.40;27.73;;;-3.80;99.90;;;;;;5001118;28;20033;-78
2023/01/21 03:51:52;;;;;;;53.90;25.77;;;-4.00;99.90;;;;;;5006666;28;20030;-78
2023/01/21 03:54:18;;;;;;;58.80;27.52;;;-3.90;99.90;;;;;;5007830;28;20045;-77
2023/01/21 03:56:43;;;;;;;53.22;24.40;;;-3.80;99.90;;;;;;4989840;28;20036;-78
2023/01/21 03:59:09;;;;;;;55.08;26.17;;;-3.90;99.90;;;;;;4992525;28;20037;-79
2023/01/21 04:01:35;;;;;;;54.72;26.70;;;-3.90;99.90;;;;;;5010327;28;20036;-78
2023/01/21 04:04:00;;;;;;;55.22;25.95;;;-3.90;99.90;;;;;;5009997;28;20041;-78
2023/01/21 04:06:26;;;;;;;53.78;25.73;;;-4.00;99.90;;;;;;5030767;28;20032;-78
2023/01/21 04:08:51;;;;;;;52.95;25.80;;;-4.00;99.90;;;;;;5011795;28;20039;-78
2023/01/21 04:11:17;;;;;;;52.47;24.60;;;-3.90;99.90;;;;;;5023050;28;20037;-78
2023/01/21 04:13:42;;;;;;;49.80;26.50;;;-3.90;99.90;;;;;;5010922;28;20024;-78
2023/01/21 04:16:08;;;;;;;58.80;26.90;;;-3.90;99.90;;;;;;5011433;28;20162;-78
2023/01/21 04:18:33;;;;;;;60.92;25.55;;;-4.00;99.90;;;;;;4995735;28;20095;-78
2023/01/21 04:20:59;;;;;;;56.05;26.85;;;-4.00;99.90;;;;;;4996858;28;20033;-78
2023/01/21 04:23:25;;;;;;;53.97;26.08;;;-4.00;99.90;;;;;;5026687;28;20021;-78
2023/01/21 04:25:50;;;;;;;56.65;24.52;;;-4.10;99.90;;;;;;5010170;28;20029;-78
2023/01/21 04:28:16;;;;;;;61.75;27.90;;;-4.10;99.90;;;;;;5011195;28;20044;-78
2023/01/21 04:30:42;;;;;;;53.22;25.92;;;-4.10;99.90;;;;;;5009230;28;20041;-79
2023/01/21 04:33:07;;;;;;;59.25;24.65;;;-4.10;99.90;;;;;;5008811;28;20888;-78
2023/01/21 04:35:35;;;;;;;54.60;24.85;;;-4.10;99.90;;;;;;5005158;28;20036;-78
2023/01/21 04:38:01;;;;;;;55.88;26.75;;;-4.10;99.90;;;;;;4995330;28;20478;-79
2023/01/21 04:40:27;;;;;;;51.33;24.67;;;-4.20;99.90;;;;;;4992113;28;20033;-77
2023/01/21 04:42:53;;;;;;;51.75;24.67;;;-4.30;99.90;;;;;;5013560;28;20032;-78
2023/01/21 04:45:18;;;;;;;58.92;25.25;;;-4.20;99.90;;;;;;5009184;28;20409;-78
2023/01/21 04:47:44;;;;;;;54.38;24.42;;;-4.20;99.90;;;;;;5026981;28;20071;-78
2023/01/21 04:50:10;;;;;;;55.30;25.38;;;-4.30;99.90;;;;;;4994765;28;20041;-78
2023/01/21 04:52:36;;;;;;;58.17;26.40;;;-4.30;99.90;;;;;;5015592;28;20546;-77
2023/01/21 04:55:01;;;;;;;53.90;25.42;;;-4.30;99.90;;;;;;4986992;28;20114;-80
2023/01/21 04:57:27;;;;;;;52.78;22.90;;;-4.30;99.90;;;;;;4993805;28;20044;-78
2023/01/21 04:59:52;;;;;;;58.33;25.58;;;-4.20;99.90;;;;;;5019077;28;20041;-78
2023/01/21 05:02:18;;;;;;;53.72;25.10;;;-4.30;99.90;;;;;;4997210;28;20029;-78
2023/01/21 05:04:44;;;;;;;54.08;23.98;;;-4.30;99.90;;;;;;5012251;28;20036;-78
2023/01/21 05:07:10;;;;;;;50.42;22.85;;;-4.40;99.90;;;;;;5011527;28;20094;-80
2023/01/21 05:09:36;;;;;;;53.15;23.65;;;-4.30;99.90;;;;;;5012948;28;20560;-79
2023/01/21 05:12:02;;;;;;;53.47;24.20;;;-4.50;99.90;;;;;;5008929;28;20041;-78
2023/01/21 05:14:27;;;;;;;57.83;25.25;;;-4.50;99.90;;;;;;5007296;28;20038;-79
2023/01/21 05:16:53;;;;;;;51.78;25.35;;;-4.50;99.90;;;;;;5008855;28;20040;-79
2023/01/21 05:19:18;;;;;;;52.42;24.02;;;-4.60;99.90;;;;;;5011322;28;20028;-79
2023/01/21 05:21:44;;;;;;;52.10;24.95;;;-4.60;99.90;;;;;;5009074;28;20039;-79
2023/01/21 05:24:09;;;;;;;53.28;25.58;;;-4.60;99.90;;;;;;5009392;28;24811;-81
2023/01/21 05:26:35;;;;;;;54.65;26.27;;;-4.60;99.90;;;;;;5009320;28;20148;-79
2023/01/21 05:29:00;;;;;;;51.97;25.35;;;-4.60;99.90;;;;;;5008661;28;20471;-79
2023/01/21 05:31:26;;;;;;;55.83;26.15;;;-4.70;99.90;;;;;;5003614;28;20037;-79
2023/01/21 05:33:51;;;;;;;53.15;26.48;;;-4.70;99.90;;;;;;5006091;28;20036;-79
2023/01/21 05:36:17;;;;;;;59.20;25.13;;;-4.90;99.90;;;;;;4993934;28;20021;-79
2023/01/21 05:38:42;;;;;;;56.00;26.08;;;-4.80;99.90;;;;;;5009735;28;20056;-79
2023/01/21 05:41:08;;;;;;;52.45;25.92;;;-4.70;99.90;;;;;;5006801;28;20033;-79
2023/01/21 05:43:33;;;;;;;56.70;26.27;;;-4.70;99.90;;;;;;5004402;28;20084;-79
2023/01/21 05:46:06;;;;;;;54.75;27.13;;;-4.60;99.90;;;;;;5021028;28;20075;-79
2023/01/21 05:48:32;;;;;;;53.22;26.23;;;-4.60;99.90;;;;;;5028264;28;20027;-79
2023/01/21 05:50:57;;;;;;;57.05;27.63;;;-4.50;99.90;;;;;;5008567;28;20037;-79
2023/01/21 05:53:23;;;;;;;59.05;26.90;;;-4.50;99.90;;;;;;5008632;28;20108;-79
2023/01/21 05:55:53;;;;;;;57.13;24.70;;;-4.40;99.90;;;;;;4989196;28;20041;-79
2023/01/21 05:58:19;;;;;;;60.80;28.80;;;-4.30;99.90;;;;;;5017930;28;20025;-79
2023/01/21 06:00:46;;;;;;;64.22;27.15;;;-4.30;99.90;;;;;;4990999;28;20040;-79
2023/01/21 06:03:12;;;;;;;66.22;30.23;;;-4.30;99.90;;;;;;5008779;28;20512;-79
2023/01/21 06:05:37;;;;;;;54.75;26.48;;;-4.20;99.90;;;;;;4995136;28;20104;-79
2023/01/21 06:08:03;;;;;;;53.05;25.67;;;-4.20;99.90;;;;;;5020721;28;20022;-80
2023/01/21 06:10:28;;;;;;;55.70;26.27;;;-4.20;99.90;;;;;;5012900;28;20407;-79
2023/01/21 06:12:54;;;;;;;58.08;26.60;;;-4.10;99.90;;;;;;5008057;28;20021;-79
2023/01/21 06:15:19;;;;;;;59.20;27.48;;;-4.10;99.90;;;;;;5028054;28;20036;-80
2023/01/21 06:17:45;;;;;;;61.10;28.45;;;-4.20;99.90;;;;;;5024991;28;20029;-80
2023/01/21 06:20:11;;;;;;;58.40;25.98;;;-4.20;99.90;;;;;;5010916;28;20206;-79
2023/01/21 06:22:36;;;;;;;61.38;28.42;;;-4.20;99.90;;;;;;5008934;28;20033;-79
2023/01/21 06:25:02;;;;;;;55.22;25.80;;;-4.30;99.90;;;;;;5007771;28;20041;-79
2023/01/21 06:27:27;;;;;;;56.55;27.42;;;-4.30;99.90;;;;;;5010518;28;20037;-79
2023/01/21 06:29:53;;;;;;;58.30;27.08;;;-4.30;99.90;;;;;;5026046;28;20044;-80
2023/01/21 06:32:18;;;;;;;64.38;27.42;;;-4.30;99.90;;;;;;5011081;28;20112;-79
2023/01/21 06:34:44;;;;;;;61.92;27.08;;;-4.30;99.90;;;;;;5010671;28;20064;-79
2023/01/21 06:37:10;;;;;;;55.47;27.58;;;-4.40;99.90;;;;;;5024666;28;20032;-79
2023/01/21 06:39:37;;;;;;;63.85;26.95;;;-4.50;99.90;;;;;;5004959;28;20416;-79
2023/01/21 06:42:03;;;;;;;59.90;25.95;;;-4.60;99.90;;;;;;5005791;28;20032;-80
2023/01/21 06:44:28;;;;;;;58.38;27.08;;;-4.70;99.90;;;;;;4992158;28;20772;-80
2023/01/21 06:46:54;;;;;;;58.95;27.92;;;-4.70;99.90;;;;;;4999320;28;20518;-79
2023/01/21 06:49:19;;;;;;;58.53;27.23;;;-4.60;99.90;;;;;;5006085;28;20495;-80
2023/01/21 06:51:45;;;;;;;57.42;27.88;;;-4.60;99.90;;;;;;5025372;28;20392;-79
2023/01/21 06:54:10;;;;;;;54.78;26.00;;;-4.60;99.90;;;;;;5023980;28;20501;-80
2023/01/21 06:56:36;;;;;;;59.70;27.15;;;-4.70;99.90;;;;;;5009560;28;20037;-80
2023/01/21 06:59:02;;;;;;;54.33;26.50;;;-4.60;99.90;;;;;;5021730;28;20407;-80
2023/01/21 07:01:29;;;;;;;57.85;26.23;;;-4.70;99.90;;;;;;4989274;28;20029;-79
2023/01/21 07:03:55;;;;;;;61.35;27.27;;;-4.60;99.90;;;;;;4994936;28;20033;-80
2023/01/21 07:06:24;;;;;;;55.60;27.83;;;-4.60;99.90;;;;;;4989193;28;20368;-80
2023/01/21 07:08:50;;;;;;;57.53;25.48;;;-4.70;99.90;;;;;;5007166;28;20029;-79
2023/01/21 07:11:15;;;;;;;51.03;24.27;;;-4.60;99.90;;;;;;4989117;28;20499;-80
2023/01/21 07:13:41;;;;;;;60.30;26.70;;;-4.60;99.90;;;;;;4988838;28;20025;-79
2023/01/21 07:16:07;;;;;;;59.35;28.35;;;-4.60;99.90;;;;;;4990695;28;20061;-79
2023/01/21 07:18:32;;;;;;;63.45;28.48;;;-4.60;99.90;;;;;;4994671;28;20112;-79
2023/01/21 07:20:58;;;;;;;59.30;27.45;;;-4.60;99.90;;;;;;5024647;28;20026;-80
2023/01/21 07:23:24;;;;;;;61.25;27.98;;;-4.60;99.90;;;;;;5006428;28;20037;-79
2023/01/21 07:25:49;;;;;;;54.83;27.20;;;-4.60;99.90;;;;;;4991591;28;20032;-81
2023/01/21 07:28:16;;;;;;;61.38;28.77;;;-4.40;99.90;;;;;;5009776;28;20140;-80
2023/01/21 07:30:42;;;;;;;65.78;26.38;;;-4.40;99.90;;;;;;5003858;28;20661;-80
2023/01/21 07:33:09;;;;;;;72.45;28.63;;;-4.40;99.90;;;;;;5022766;28;20037;-79
2023/01/21 07:35:34;;;;;;;57.38;27.17;;;-4.40;99.90;;;;;;4994622;28;20044;-80
2023/01/21 07:38:00;;;;;;;53.63;27.00;;;-4.20;99.90;;;;;;5010867;28;20048;-79
2023/01/21 07:40:26;;;;;;;58.67;26.40;;;-4.20;99.90;;;;;;5030232;28;20060;-79
2023/01/21 07:42:52;;;;;;;58.25;27.55;;;-4.10;99.90;;;;;;4982639;28;20055;-79
2023/01/21 07:45:19;;;;;;;66.82;28.80;;;-4.10;99.90;;;;;;5028234;28;20060;-79
2023/01/21 07:47:44;;;;;;;63.72;29.60;;;-4.00;99.90;;;;;;4997566;28;20037;-78
2023/01/21 07:50:10;;;;;;;61.60;29.00;;;-4.00;99.90;;;;;;5013736;28;20041;-79
2023/01/21 07:52:36;;;;;;;67.65;28.15;;;-3.90;99.90;;;;;;5012279;28;20094;-80
2023/01/21 07:55:01;;;;;;;77.05;29.50;;;-3.80;99.90;;;;;;5012579;28;20465;-81
2023/01/21 07:57:27;;;;;;;66.38;29.48;;;-3.80;99.90;;;;;;5014400;28;20181;-79
2023/01/21 07:59:53;;;;;;;61.42;29.73;;;-3.80;99.90;;;;;;4994851;28;20033;-79
2023/01/21 08:02:18;;;;;;;59.30;26.90;;;-3.70;99.90;;;;;;5029310;28;20407;-77
2023/01/21 08:04:44;;;;;;;71.45;33.70;;;-3.60;99.90;;;;;;4986483;28;20029;-78
2023/01/21 08:07:09;;;;;;;69.93;30.27;;;-3.60;99.90;;;;;;5011833;28;20085;-79
2023/01/21 08:09:36;;;;;;;72.57;31.40;;;-3.60;99.90;;;;;;5027928;28;20036;-78
2023/01/21 08:12:03;;;;;;;84.72;35.33;;;-3.60;99.90;;;;;;5012695;28;20083;-79
2023/01/21 08:14:28;;;;;;;70.55;31.13;;;-3.50;99.90;;;;;;5014863;28;20504;-79
2023/01/21 08:16:54;;;;;;;92.20;35.65;;;-3.40;99.90;;;;;;5011075;28;20055;-78
2023/01/21 08:19:20;;;;;;;84.22;35.85;;;-3.40;99.90;;;;;;4990684;28;20927;-78
2023/01/21 08:21:45;;;;;;;88.50;35.35;;;-3.30;99.90;;;;;;5013213;28;20477;-80
2023/01/21 08:24:11;;;;;;;89.50;36.92;;;-3.30;99.90;;;;;;5027071;28;20040;-78
2023/01/21 08:26:36;;;;;;;91.40;37.70;;;-3.20;99.90;;;;;;5028304;28;20040;-79
2023/01/21 08:29:02;;;;;;;101.38;37.90;;;-3.10;99.90;;;;;;5027200;28;20037;-79
2023/01/21 08:31:28;;;;;;;101.82;41.50;;;-3.00;99.90;;;;;;5006704;28;20033;-77
2023/01/21 08:33:53;;;;;;;92.00;35.45;;;-2.90;99.90;;;;;;5003104;28;20025;-80
2023/01/21 08:36:19;;;;;;;107.03;41.60;;;-2.90;99.90;;;;;;5004693;28;20056;-80
2023/01/21 08:38:44;;;;;;;91.53;34.75;;;-2.80;99.90;;;;;;5009828;28;20104;-80
2023/01/21 08:41:10;;;;;;;92.97;39.10;;;-2.70;99.90;;;;;;4992228;28;20041;-79
2023/01/21 08:43:35;;;;;;;104.03;40.80;;;-2.70;99.90;;;;;;4997270;28;20021;-78
2023/01/21 08:46:01;;;;;;;85.55;35.30;;;-2.70;99.90;;;;;;5014719;28;20021;-78
2023/01/21 08:48:27;;;;;;;99.68;38.90;;;-2.60;99.90;;;;;;5013272;28;20109;-78
2023/01/21 08:50:53;;;;;;;105.53;40.22;;;-2.50;99.90;;;;;;5012996;28;20063;-78
2023/01/21 08:53:19;;;;;;;105.60;39.33;;;-2.50;99.90;;;;;;5012342;28;20055;-78
2023/01/21 08:55:44;;;;;;;104.35;40.95;;;-2.40;99.90;;;;;;4999139;28;20037;-79
2023/01/21 08:58:10;;;;;;;104.57;43.75;;;-2.40;99.90;;;;;;5027902;28;20458;-78
2023/01/21 09:00:35;;;;;;;90.18;38.22;;;-2.40;99.90;;;;;;4991745;28;20037;-78
2023/01/21 09:03:01;;;;;;;99.75;42.67;;;-2.30;99.90;;;;;;5014892;28;20337;-78
2023/01/21 09:05:26;;;;;;;99.28;40.05;;;-2.10;99.90;;;;;;5010960;28;20510;-78
2023/01/21 09:07:52;;;;;;;97.53;38.72;;;-2.10;99.90;;;;;;5024634;28;20093;-79
2023/01/21 09:13:05;;;;;;;87.65;36.72;;;-2.00;99.90;;;;;;5026208;28;20503;-79
2023/01/21 09:15:31;;;;;;;106.85;40.60;;;-1.90;99.90;;;;;;4997659;28;20098;-80
2023/01/21 09:17:56;;;;;;;107.60;42.83;;;-1.80;99.90;;;;;;5014575;28;20045;-80
2023/01/21 09:20:22;;;;;;;111.68;42.28;;;-1.80;99.90;;;;;;4995733;28;20044;-80
2023/01/21 09:22:47;;;;;;;114.90;43.00;;;-1.70;99.90;;;;;;5010917;28;20033;-78
2023/01/21 09:25:13;;;;;;;118.25;47.92;;;-1.70;99.90;;;;;;5012897;28;20037;-78
2023/01/21 09:27:38;;;;;;;104.30;40.10;;;-1.70;99.90;;;;;;5011846;28;20048;-80
2023/01/21 09:30:04;;;;;;;105.70;41.75;;;-1.60;99.90;;;;;;5008594;28;20045;-78
2023/01/21 09:32:30;;;;;;;108.75;42.13;;;-1.50;99.90;;;;;;4994623;28;20873;-79
2023/01/21 09:34:56;;;;;;;111.50;44.47;;;-1.50;99.90;;;;;;5009123;28;20025;-78
2023/01/21 09:37:21;;;;;;;105.95;40.67;;;-1.40;99.90;;;;;;5013871;28;20044;-78
2023/01/21 09:39:47;;;;;;;93.50;36.92;;;-1.30;99.90;;;;;;5029156;28;20041;-78
2023/01/21 09:42:17;;;;;;;108.55;42.60;;;-1.30;99.90;;;;;;5010041;28;20108;-87
2023/01/21 09:44:43;;;;;;;108.22;41.60;;;-1.20;99.90;;;;;;5015017;28;20144;-88
2023/01/21 09:47:20;;;;;;;124.90;44.90;;;-1.20;99.90;;;;;;5011965;28;20045;-88
2023/01/21 09:49:59;;;;;;;115.28;45.08;;;-1.10;99.90;;;;;;5016122;28;20068;-87
2023/01/21 09:52:52;;;;;;;108.13;40.13;;;-1.10;99.90;;;;;;5018200;28;20041;-87
2023/01/21 09:55:19;;;;;;;95.28;37.63;;;-1.00;99.90;;;;;;5019650;28;20033;-87
2023/01/21 09:58:08;;;;;;;120.13;47.17;;;-1.00;99.90;;;;;;4996422;28;20033;-87
2023/01/21 10:00:48;;;;;;;111.90;40.55;;;-0.80;99.90;;;;;;5025869;28;20053;-88
2023/01/21 10:03:39;;;;;;;111.60;43.95;;;-0.80;99.90;;;;;;5012662;28;20040;-86
2023/01/21 10:06:37;;;;;;;115.00;45.40;;;-0.80;99.90;;;;;;5022093;28;20129;-87
2023/01/21 10:09:28;;;;;;;118.03;48.22;;;-0.70;99.90;;;;;;5009951;28;20105;-87
2023/01/21 10:11:59;;;;;;;123.68;45.60;;;-0.70;99.90;;;;;;5010660;28;20061;-88
2023/01/21 10:14:37;;;;;;;118.47;45.35;;;-0.60;99.90;;;;;;5039250;28;20052;-88
2023/01/21 10:17:14;;;;;;;120.82;44.20;;;-0.60;99.90;;;;;;5028123;28;20124;-88
2023/01/21 10:20:04;;;;;;;116.35;40.75;;;-0.50;99.90;;;;;;4993502;28;20025;-86
2023/01/21 10:22:32;;;;;;;123.07;44.33;;;-0.50;99.90;;;;;;4998726;28;20233;-87
2023/01/21 10:25:06;;;;;;;130.45;52.58;;;-0.50;99.90;;;;;;5009733;28;20623;-89
2023/01/21 10:27:33;;;;;;;116.90;43.88;;;-0.40;99.90;;;;;;5016100;28;20033;-87
2023/01/21 10:30:06;;;;;;;118.93;43.22;;;-0.40;99.90;;;;;;4993882;28;20037;-86
2023/01/21 10:32:33;;;;;;;123.18;49.20;;;-0.40;99.90;;;;;;5008245;28;20474;-86
2023/01/21 10:34:59;;;;;;;127.53;49.92;;;-0.30;99.90;;;;;;4994689;28;20116;-86
2023/01/21 10:37:35;;;;;;;135.48;55.17;;;-0.30;99.90;;;;;;5020105;28;20052;-87
2023/01/21 10:40:42;;;;;;;116.82;43.95;;;-0.30;99.90;;;;;;5038272;28;20128;-88
2023/01/21 10:43:30;;;;;;;119.78;44.30;;;-0.20;99.90;;;;;;5044890;28;20560;-90
2023/01/21 10:46:16;;;;;;;122.47;44.42;;;-0.20;99.90;;;;;;5008904;28;20037;-90
2023/01/21 10:48:47;;;;;;;129.27;46.47;;;-0.10;99.90;;;;;;5026715;28;20044;-89
2023/01/21 10:51:31;;;;;;;122.15;44.97;;;-0.10;99.90;;;;;;5009133;28;20029;-90
2023/01/21 10:54:00;;;;;;;115.90;40.83;;;-0.10;99.90;;;;;;5017454;28;20112;-90
2023/01/21 10:56:47;;;;;;;123.15;43.40;;;-0.10;99.90;;;;;;5021323;28;20029;-88
2023/01/21 10:59:15;;;;;;;;;;;0.00;99.90;;;;;;5024038;28;20480;-90
2023/01/21 11:01:43;;;;;;;120.43;42.83;;;0.00;99.90;;;;;;5017624;28;19909;-89
2023/01/21 11:04:15;;;;;;;129.13;46.38;;;-0.10;99.90;;;;;;5023593;28;20059;-89
2023/01/21 11:06:42;;;;;;;124.20;43.03;;;0.00;99.90;;;;;;5005063;28;20113;-88
2023/01/21 11:09:11;;;;;;;121.85;39.72;;;0.00;99.90;;;;;;4992172;28;20412;-89
2023/01/21 11:11:39;;;;;;;114.22;41.25;;;0.00;99.90;;;;;;5010206;28;20484;-87
2023/01/21 11:14:04;;;;;;;110.82;40.63;;;0.10;99.90;;;;;;5024778;28;20552;-88
2023/01/21 11:16:42;;;;;;;116.10;39.13;;;0.10;99.90;;;;;;5001108;28;20060;-87
2023/01/21 11:19:11;;;;;;;105.97;39.03;;;0.20;99.90;;;;;;5021797;28;20033;-90
2023/01/21 11:21:38;;;;;;;113.43;45.97;;;0.30;99.90;;;;;;4999350;28;20064;-90
2023/01/21 11:24:16;;;;;;;107.38;37.72;;;0.30;99.90;;;;;;5002073;28;20041;-90
2023/01/21 11:26:54;;;;;;;121.07;42.67;;;0.30;99.90;;;;;;5003743;28;20135;-91
2023/01/21 11:29:20;;;;;;;113.72;38.30;;;0.50;99.90;;;;;;5016259;28;20428;-88
2023/01/21 11:32:02;;;;;;;112.05;37.92;;;0.40;99.90;;;;;;5009115;28;20029;-89
2023/01/21 11:34:27;;;;;;;113.95;37.50;;;0.50;99.90;;;;;;5025805;28;20045;-88
2023/01/21 11:37:01;;;;;;;114.20;37.22;;;0.60;99.90;;;;;;5026894;28;20033;-88
2023/01/21 11:39:37;;;;;;;117.88;43.53;;;0.60;99.90;;;;;;5031263;28;20040;-91
2023/01/21 11:42:07;;;;;;;102.60;36.50;;;0.70;99.90;;;;;;5012610;28;20507;-87
2023/01/21 11:44:33;;;;;;;115.70;41.97;;;0.80;99.90;;;;;;4998085;28;20481;-88
2023/01/21 11:46:58;;;;;;;111.38;38.72;;;0.80;99.90;;;;;;4999336;28;20033;-88
2023/01/21 11:49:26;;;;;;;107.18;36.47;;;0.90;99.90;;;;;;5027027;28;20051;-88
2023/01/21 11:52:08;;;;;;;111.45;40.30;;;0.90;99.90;;;;;;5013105;28;20508;-89
2023/01/21 11:54:37;;;;;;;103.68;35.92;;;0.90;99.90;;;;;;5027256;28;20029;-89
2023/01/21 11:57:03;;;;;;;112.32;36.53;;;1.00;99.90;;;;;;5013038;28;20432;-89
2023/01/21 11:59:32;;;;;;;100.13;35.53;;;1.00;99.90;;;;;;5017356;28;20028;-88
2023/01/21 12:02:30;;;;;;;107.93;37.90;;;1.00;99.90;;;;;;5010357;28;20097;-88
2023/01/21 12:05:18;;;;;;;93.75;36.25;;;1.10;99.90;;;;;;5014874;28;20517;-87
2023/01/21 12:07:43;;;;;;;101.03;38.80;;;1.10;99.90;;;;;;5041703;28;20033;-87
2023/01/21 12:10:11;;;;;;;101.78;34.83;;;1.20;99.90;;;;;;4996713;28;20096;-88
2023/01/21 12:13:04;;;;;;;92.65;33.53;;;1.20;99.90;;;;;;5026610;28;20038;-89
2023/01/21 12:15:37;;;;;;;86.38;36.67;;;1.30;99.90;;;;;;5024467;28;20040;-88
2023/01/21 12:18:37;;;;;;;72.30;30.65;;;1.40;99.90;;;;;;4991918;28;20346;-88
2023/01/21 12:21:05;;;;;;;75.13;30.38;;;1.40;99.90;;;;;;4992859;28;20045;-89
2023/01/21 12:23:31;;;;;;;72.20;28.85;;;1.40;99.90;;;;;;5011984;28;20043;-88
2023/01/21 12:26:08;;;;;;;68.25;29.15;;;1.40;99.90;;;;;;5023732;28;20564;-86
2023/01/21 12:28:53;;;;;;;71.15;28.40;;;1.50;99.90;;;;;;4660111;28;10000548;-88
2023/01/21 12:31:42;;;;;;;64.53;26.25;;;1.50;99.90;;;;;;5021675;28;20044;-87
2023/01/21 12:34:18;;;;;;;52.03;21.85;;;1.50;99.90;;;;;;5006322;28;20098;-88
2023/01/21 12:37:19;;;;;;;57.42;25.08;;;1.50;99.90;;;;;;5018976;28;20021;-87
2023/01/21 12:39:44;;;;;;;51.60;23.65;;;1.60;99.90;;;;;;4989163;28;20046;-88
2023/01/21 12:42:28;;;;;;;54.95;24.65;;;1.60;99.90;;;;;;4991668;28;20153;-87
2023/01/21 12:44:59;;;;;;;52.08;22.30;;;1.70;99.90;;;;;;5019195;28;20056;-87